sensor_id;sensor_type;location;lat;lon;timestamp;pressure;altitude;pressure_sealevel;temperature;humidity
20023;BME280;10172;42.054;24.546;2023-02-28T00:01:16;98629.88;;;10.33;100.00
20023;BME280;10172;42.054;24.546;2023-02-28T00:03:42;98629.69;;;9.62;100.00
20023;BME280;10172;42.054;24.546;2023-02-28T00:06:08;98627.97;;;8.69;100.00
20023;BME280;10172;42.054;24.546;2023-02-28T00:08:35;98620.44;;;8.77;100.00
20023;BME280;10172;42.054;24.546;2023-02-28T00:11:05;98622.50;;;8.88;100.00
20023;BME280;10172;42.054;24.546;2023-02-28T00:13:33;98618.38;;;8.67;100.00
20023;BME280;10172;42.054;24.546;2023-02-28T00:16:01;98621.47;;;8.75;100.00
20023;BME280;10172;42.054;24.546;2023-02-28T00:18:27;98621.63;;;8.72;100.00
20023;BME280;10172;42.054;24.546;2023-02-28T00:20:52;98619.75;;;9.05;100.00
20023;BME280;10172;42.054;24.546;2023-02-28T00:23:18;98623.78;;;9.57;100.00
20023;BME280;10172;42.054;24.546;2023-02-28T00:25:43;98631.53;;;9.31;100.00
20023;BME280;10172;42.054;24.546;2023-02-28T00:28:09;98638.44;;;9.65;100.00
20023;BME280;10172;42.054;24.546;2023-02-28T00:30:35;98633.25;;;9.00;100.00
20023;BME280;10172;42.054;24.546;2023-02-28T00:33:00;98642.97;;;8.37;100.00
20023;BME280;10172;42.054;24.546;2023-02-28T00:35:26;98629.31;;;8.61;100.00
20023;BME280;10172;42.054;24.546;2023-02-28T00:37:51;98639.25;;;8.73;100.00
20023;BME280;10172;42.054;24.546;2023-02-28T00:40:17;98642.34;;;8.81;100.00
20023;BME280;10172;42.054;24.546;2023-02-28T00:42:42;98638.91;;;8.79;100.00
20023;BME280;10172;42.054;24.546;2023-02-28T00:45:08;98641.22;;;9.00;100.00
20023;BME280;10172;42.054;24.546;2023-02-28T00:47:34;98632.44;;;8.19;100.00
20023;BME280;10172;42.054;24.546;2023-02-28T00:50:00;98647.41;;;8.37;100.00
20023;BME280;10172;42.054;24.546;2023-02-28T00:52:25;98644.84;;;8.01;100.00
20023;BME280;10172;42.054;24.546;2023-02-28T00:54:51;98642.56;;;8.28;100.00
20023;BME280;10172;42.054;24.546;2023-02-28T00:57:16;98639.91;;;8.45;100.00
20023;BME280;10172;42.054;24.546;2023-02-28T00:59:42;98645.28;;;8.92;100.00
20023;BME280;10172;42.054;24.546;2023-02-28T01:02:07;98637.25;;;8.61;100.00
20023;BME280;10172;42.054;24.546;2023-02-28T01:04:33;98648.47;;;8.66;100.00
20023;BME280;10172;42.054;24.546;2023-02-28T01:06:59;98652.25;;;8.29;100.00
20023;BME280;10172;42.054;24.546;2023-02-28T01:09:24;98646.59;;;8.68;100.00
20023;BME280;10172;42.054;24.546;2023-02-28T01:11:50;98656.22;;;8.70;100.00
20023;BME280;10172;42.054;24.546;2023-02-28T01:14:16;98654.94;;;8.45;100.00
20023;BME280;10172;42.054;24.546;2023-02-28T01:16:43;98644.75;;;8.85;100.00
20023;BME280;10172;42.054;24.546;2023-02-28T01:19:08;98638.41;;;8.72;100.00
20023;BME280;10172;42.054;24.546;2023-02-28T01:21:34;98634.09;;;8.04;100.00
20023;BME280;10172;42.054;24.546;2023-02-28T01:24:01;98631.66;;;8.34;100.00
20023;BME280;10172;42.054;24.546;2023-02-28T01:26:26;98632.06;;;8.75;100.00
20023;BME280;10172;42.054;24.546;2023-02-28T01:28:52;98620.44;;;8.62;100.00
20023;BME280;10172;42.054;24.546;2023-02-28T01:31:19;98630.31;;;8.43;100.00
20023;BME280;10172;42.054;24.546;2023-02-28T01:33:45;98631.06;;;8.45;100.00
20023;BME280;10172;42.054;24.546;2023-02-28T01:36:17;98639.16;;;8.59;100.00
20023;BME280;10172;42.054;24.546;2023-02-28T01:38:43;98645.06;;;8.95;100.00
20023;BME280;10172;42.054;24.546;2023-02-28T01:41:15;98645.94;;;8.80;100.00
20023;BME280;10172;42.054;24.546;2023-02-28T01:46:10;98639.09;;;8.76;100.00
20023;BME280;10172;42.054;24.546;2023-02-28T01:48:38;98638.31;;;8.89;100.00
20023;BME280;10172;42.054;24.546;2023-02-28T01:51:13;98645.47;;;8.56;100.00
20023;BME280;10172;42.054;24.546;2023-02-28T01:53:53;98650.31;;;8.32;100.00
20023;BME280;10172;42.054;24.546;2023-02-28T01:56:24;98655.34;;;8.20;100.00
20023;BME280;10172;42.054;24.546;2023-02-28T01:58:52;98660.78;;;8.51;100.00
20023;BME280;10172;42.054;24.546;2023-02-28T02:01:19;98655.69;;;8.95;100.00
20023;BME280;10172;42.054;24.546;2023-02-28T02:04:01;98665.94;;;8.70;100.00
20023;BME280;10172;42.054;24.546;2023-02-28T02:06:31;98665.06;;;8.54;100.00
20023;BME280;10172;42.054;24.546;2023-02-28T02:08:59;98659.38;;;8.77;100.00
20023;BME280;10172;42.054;24.546;2023-02-28T02:11:25;98666.59;;;8.58;100.00
20023;BME280;10172;42.054;24.546;2023-02-28T02:16:38;98673.19;;;8.33;100.00
20023;BME280;10172;42.054;24.546;2023-02-28T02:22:12;98679.97;;;8.72;100.00
20023;BME280;10172;42.054;24.546;2023-02-28T02:25:11;98691.41;;;8.57;100.00
20023;BME280;10172;42.054;24.546;2023-02-28T02:30:54;98697.06;;;7.99;100.00
20023;BME280;10172;42.054;24.546;2023-02-28T02:36:31;98686.94;;;8.90;100.00
20023;BME280;10172;42.054;24.546;2023-02-28T02:39:06;98686.28;;;8.54;100.00
20023;BME280;10172;42.054;24.546;2023-02-28T02:41:37;98700.25;;;8.40;100.00
20023;BME280;10172;42.054;24.546;2023-02-28T02:46:57;98711.53;;;8.43;100.00
20023;BME280;10172;42.054;24.546;2023-02-28T02:49:28;98694.88;;;8.24;100.00
20023;BME280;10172;42.054;24.546;2023-02-28T02:51:58;98705.69;;;8.20;100.00
20023;BME280;10172;42.054;24.546;2023-02-28T02:54:29;98713.34;;;7.92;100.00
20023;BME280;10172;42.054;24.546;2023-02-28T02:57:00;98703.13;;;8.01;100.00
20023;BME280;10172;42.054;24.546;2023-02-28T02:59:30;98710.94;;;8.21;100.00
20023;BME280;10172;42.054;24.546;2023-02-28T03:01:59;98706.94;;;8.13;100.00
20023;BME280;10172;42.054;24.546;2023-02-28T03:04:28;98719.75;;;8.39;100.00
20023;BME280;10172;42.054;24.546;2023-02-28T03:06:55;98724.16;;;8.56;100.00
20023;BME280;10172;42.054;24.546;2023-02-28T03:09:25;98731.41;;;8.18;100.00
20023;BME280;10172;42.054;24.546;2023-02-28T03:11:53;98729.88;;;8.48;100.00
20023;BME280;10172;42.054;24.546;2023-02-28T03:17:24;98732.53;;;8.31;100.00
20023;BME280;10172;42.054;24.546;2023-02-28T03:20:07;98733.41;;;8.31;100.00
20023;BME280;10172;42.054;24.546;2023-02-28T03:22:45;98733.19;;;8.00;100.00
20023;BME280;10172;42.054;24.546;2023-02-28T03:28:03;98742.81;;;8.87;100.00
20023;BME280;10172;42.054;24.546;2023-02-28T03:35:37;98737.50;;;8.03;100.00
20023;BME280;10172;42.054;24.546;2023-02-28T03:38:19;98743.16;;;8.81;100.00
20023;BME280;10172;42.054;24.546;2023-02-28T03:40:57;98744.22;;;8.94;100.00
20023;BME280;10172;42.054;24.546;2023-02-28T03:43:29;98739.75;;;8.10;100.00
20023;BME280;10172;42.054;24.546;2023-02-28T03:45:58;98755.47;;;8.32;100.00
20023;BME280;10172;42.054;24.546;2023-02-28T03:48:44;98755.78;;;8.43;100.00
20023;BME280;10172;42.054;24.546;2023-02-28T03:51:15;98764.03;;;8.87;100.00
20023;BME280;10172;42.054;24.546;2023-02-28T03:53:45;98768.78;;;8.48;100.00
20023;BME280;10172;42.054;24.546;2023-02-28T03:56:13;98771.19;;;8.52;100.00
20023;BME280;10172;42.054;24.546;2023-02-28T04:01:26;98766.19;;;9.76;100.00
20023;BME280;10172;42.054;24.546;2023-02-28T04:03:55;98775.00;;;9.60;100.00
20023;BME280;10172;42.054;24.546;2023-02-28T04:06:22;98793.63;;;8.79;100.00
20023;BME280;10172;42.054;24.546;2023-02-28T04:08:48;98790.19;;;8.26;100.00
20023;BME280;10172;42.054;24.546;2023-02-28T04:13:39;98788.53;;;7.70;100.00
20023;BME280;10172;42.054;24.546;2023-02-28T04:16:08;98790.78;;;7.97;100.00
20023;BME280;10172;42.054;24.546;2023-02-28T04:18:38;98789.50;;;8.05;100.00
20023;BME280;10172;42.054;24.546;2023-02-28T04:21:04;98789.94;;;7.96;100.00
20023;BME280;10172;42.054;24.546;2023-02-28T04:23:31;98785.00;;;8.24;100.00
20023;BME280;10172;42.054;24.546;2023-02-28T04:25:56;98793.78;;;8.08;100.00
20023;BME280;10172;42.054;24.546;2023-02-28T04:28:22;98794.81;;;8.74;100.00
20023;BME280;10172;42.054;24.546;2023-02-28T04:30:54;98798.00;;;9.13;100.00
20023;BME280;10172;42.054;24.546;2023-02-28T04:33:20;98792.34;;;9.19;100.00
20023;BME280;10172;42.054;24.546;2023-02-28T04:35:45;98789.84;;;9.65;100.00
20023;BME280;10172;42.054;24.546;2023-02-28T04:38:11;98793.41;;;8.50;100.00
20023;BME280;10172;42.054;24.546;2023-02-28T04:40:36;98791.75;;;8.13;100.00
20023;BME280;10172;42.054;24.546;2023-02-28T04:43:02;98786.69;;;8.08;100.00
20023;BME280;10172;42.054;24.546;2023-02-28T04:45:28;98794.19;;;8.52;100.00
20023;BME280;10172;42.054;24.546;2023-02-28T04:47:57;98797.44;;;8.74;100.00
20023;BME280;10172;42.054;24.546;2023-02-28T04:50:23;98798.09;;;8.27;100.00
20023;BME280;10172;42.054;24.546;2023-02-28T04:52:49;98801.41;;;8.32;100.00
20023;BME280;10172;42.054;24.546;2023-02-28T04:55:14;98788.47;;;8.76;100.00
20023;BME280;10172;42.054;24.546;2023-02-28T04:57:40;98805.09;;;8.80;100.00
20023;BME280;10172;42.054;24.546;2023-02-28T05:00:08;98789.84;;;9.65;100.00
20023;BME280;10172;42.054;24.546;2023-02-28T05:02:37;98801.53;;;8.81;100.00
20023;BME280;10172;42.054;24.546;2023-02-28T05:05:04;98804.69;;;9.20;100.00
20023;BME280;10172;42.054;24.546;2023-02-28T05:07:29;98805.78;;;9.80;100.00
20023;BME280;10172;42.054;24.546;2023-02-28T05:09:55;98809.88;;;10.17;100.00
20023;BME280;10172;42.054;24.546;2023-02-28T05:12:20;98810.56;;;8.60;100.00
20023;BME280;10172;42.054;24.546;2023-02-28T05:14:45;98824.03;;;8.89;100.00
20023;BME280;10172;42.054;24.546;2023-02-28T05:17:11;98827.03;;;8.83;100.00
20023;BME280;10172;42.054;24.546;2023-02-28T05:19:36;98838.25;;;9.70;100.00
20023;BME280;10172;42.054;24.546;2023-02-28T05:22:02;98823.34;;;9.83;100.00
20023;BME280;10172;42.054;24.546;2023-02-28T05:24:27;98839.28;;;10.14;100.00
20023;BME280;10172;42.054;24.546;2023-02-28T05:26:54;98848.38;;;10.10;100.00
20023;BME280;10172;42.054;24.546;2023-02-28T05:29:20;98850.34;;;10.38;100.00
20023;BME280;10172;42.054;24.546;2023-02-28T05:31:46;98855.47;;;10.41;100.00
20023;BME280;10172;42.054;24.546;2023-02-28T05:34:12;98845.94;;;10.37;100.00
20023;BME280;10172;42.054;24.546;2023-02-28T05:36:38;98861.22;;;10.63;100.00
20023;BME280;10172;42.054;24.546;2023-02-28T05:39:05;98871.28;;;10.88;100.00
20023;BME280;10172;42.054;24.546;2023-02-28T05:41:31;98867.50;;;9.37;100.00
20023;BME280;10172;42.054;24.546;2023-02-28T05:43:57;98872.72;;;10.02;100.00
20023;BME280;10172;42.054;24.546;2023-02-28T05:46:23;98867.00;;;10.55;100.00
20023;BME280;10172;42.054;24.546;2023-02-28T05:48:48;98870.09;;;10.18;100.00
20023;BME280;10172;42.054;24.546;2023-02-28T05:51:14;98881.78;;;9.19;100.00
20023;BME280;10172;42.054;24.546;2023-02-28T05:53:40;98883.56;;;9.18;100.00
20023;BME280;10172;42.054;24.546;2023-02-28T05:56:06;98878.22;;;9.99;100.00
20023;BME280;10172;42.054;24.546;2023-02-28T05:58:31;98891.28;;;9.55;100.00
20023;BME280;10172;42.054;24.546;2023-02-28T06:01:18;98877.41;;;9.00;100.00
20023;BME280;10172;42.054;24.546;2023-02-28T06:03:44;98886.78;;;8.90;100.00
20023;BME280;10172;42.054;24.546;2023-02-28T06:06:09;98894.94;;;9.37;100.00
20023;BME280;10172;42.054;24.546;2023-02-28T06:08:35;98878.09;;;10.01;100.00
20023;BME280;10172;42.054;24.546;2023-02-28T06:11:03;98886.13;;;9.52;100.00
20023;BME280;10172;42.054;24.546;2023-02-28T06:13:28;98883.09;;;10.07;100.00
20023;BME280;10172;42.054;24.546;2023-02-28T06:15:54;98891.63;;;9.65;100.00
20023;BME280;10172;42.054;24.546;2023-02-28T06:18:19;98886.69;;;10.53;100.00
20023;BME280;10172;42.054;24.546;2023-02-28T06:20:52;98889.94;;;9.80;100.00
20023;BME280;10172;42.054;24.546;2023-02-28T06:23:20;98893.22;;;9.52;100.00
20023;BME280;10172;42.054;24.546;2023-02-28T06:25:46;98900.19;;;9.05;100.00
20023;BME280;10172;42.054;24.546;2023-02-28T06:28:11;98901.69;;;8.93;100.00
20023;BME280;10172;42.054;24.546;2023-02-28T06:30:38;98904.66;;;8.87;100.00
20023;BME280;10172;42.054;24.546;2023-02-28T06:33:03;98898.41;;;8.88;100.00
20023;BME280;10172;42.054;24.546;2023-02-28T06:35:29;98902.31;;;8.98;100.00
20023;BME280;10172;42.054;24.546;2023-02-28T06:37:55;98902.28;;;9.15;100.00
20023;BME280;10172;42.054;24.546;2023-02-28T06:40:20;98907.09;;;9.41;100.00
20023;BME280;10172;42.054;24.546;2023-02-28T06:42:46;98902.19;;;9.17;100.00
20023;BME280;10172;42.054;24.546;2023-02-28T06:45:11;98897.97;;;9.62;100.00
20023;BME280;10172;42.054;24.546;2023-02-28T06:47:38;98891.44;;;9.52;100.00
20023;BME280;10172;42.054;24.546;2023-02-28T06:50:05;98901.16;;;9.36;100.00
20023;BME280;10172;42.054;24.546;2023-02-28T06:52:31;98919.72;;;9.53;100.00
20023;BME280;10172;42.054;24.546;2023-02-28T06:54:57;98914.66;;;9.97;100.00
20023;BME280;10172;42.054;24.546;2023-02-28T06:57:29;98918.28;;;9.31;100.00
20023;BME280;10172;42.054;24.546;2023-02-28T07:00:03;98922.25;;;9.72;100.00
20023;BME280;10172;42.054;24.546;2023-02-28T07:02:29;98920.69;;;10.32;100.00
20023;BME280;10172;42.054;24.546;2023-02-28T07:04:55;98921.16;;;11.14;100.00
20023;BME280;10172;42.054;24.546;2023-02-28T07:07:20;98924.50;;;11.17;100.00
20023;BME280;10172;42.054;24.546;2023-02-28T07:09:46;98917.34;;;10.74;100.00
20023;BME280;10172;42.054;24.546;2023-02-28T07:12:11;98920.84;;;10.29;100.00
20023;BME280;10172;42.054;24.546;2023-02-28T07:14:37;98916.00;;;10.67;100.00
20023;BME280;10172;42.054;24.546;2023-02-28T07:17:03;98922.84;;;10.71;100.00
20023;BME280;10172;42.054;24.546;2023-02-28T07:19:29;98917.63;;;11.43;100.00
20023;BME280;10172;42.054;24.546;2023-02-28T07:21:54;98928.03;;;11.76;100.00
20023;BME280;10172;42.054;24.546;2023-02-28T07:24:20;98927.56;;;11.97;100.00
20023;BME280;10172;42.054;24.546;2023-02-28T07:26:45;98928.66;;;12.22;100.00
20023;BME280;10172;42.054;24.546;2023-02-28T07:29:11;98938.38;;;12.09;100.00
20023;BME280;10172;42.054;24.546;2023-02-28T07:31:36;98929.22;;;11.42;100.00
20023;BME280;10172;42.054;24.546;2023-02-28T07:34:02;98933.50;;;11.45;100.00
20023;BME280;10172;42.054;24.546;2023-02-28T07:36:28;98933.16;;;11.65;100.00
20023;BME280;10172;42.054;24.546;2023-02-28T07:38:53;98929.88;;;11.31;100.00
20023;BME280;10172;42.054;24.546;2023-02-28T07:41:20;98933.09;;;10.93;100.00
20023;BME280;10172;42.054;24.546;2023-02-28T07:43:46;98935.09;;;11.19;100.00
20023;BME280;10172;42.054;24.546;2023-02-28T07:46:14;98933.59;;;11.43;100.00
20023;BME280;10172;42.054;24.546;2023-02-28T07:48:40;98931.97;;;11.55;100.00
20023;BME280;10172;42.054;24.546;2023-02-28T07:51:06;98926.66;;;10.67;100.00
20023;BME280;10172;42.054;24.546;2023-02-28T07:53:32;98937.69;;;11.34;100.00
20023;BME280;10172;42.054;24.546;2023-02-28T07:55:59;98944.97;;;11.31;100.00
20023;BME280;10172;42.054;24.546;2023-02-28T07:58:25;98943.31;;;10.39;100.00
20023;BME280;10172;42.054;24.546;2023-02-28T08:00:51;98931.56;;;10.28;100.00
20023;BME280;10172;42.054;24.546;2023-02-28T08:03:18;98938.28;;;10.80;100.00
20023;BME280;10172;42.054;24.546;2023-02-28T08:05:44;98931.63;;;11.03;100.00
20023;BME280;10172;42.054;24.546;2023-02-28T08:08:09;98951.03;;;11.49;100.00
20023;BME280;10172;42.054;24.546;2023-02-28T08:10:35;98952.91;;;11.03;100.00
20023;BME280;10172;42.054;24.546;2023-02-28T08:13:00;98957.38;;;10.26;100.00
20023;BME280;10172;42.054;24.546;2023-02-28T08:15:26;98952.78;;;10.13;100.00
20023;BME280;10172;42.054;24.546;2023-02-28T08:17:52;98950.13;;;9.96;100.00
20023;BME280;10172;42.054;24.546;2023-02-28T08:20:18;98945.91;;;9.77;100.00
20023;BME280;10172;42.054;24.546;2023-02-28T08:22:44;98931.66;;;10.26;100.00
20023;BME280;10172;42.054;24.546;2023-02-28T08:25:09;98943.69;;;9.85;100.00
20023;BME280;10172;42.054;24.546;2023-02-28T08:27:36;98947.03;;;9.73;100.00
20023;BME280;10172;42.054;24.546;2023-02-28T08:30:02;98948.38;;;10.28;100.00
20023;BME280;10172;42.054;24.546;2023-02-28T08:32:28;98954.13;;;10.36;100.00
20023;BME280;10172;42.054;24.546;2023-02-28T08:34:53;98941.22;;;10.75;100.00
20023;BME280;10172;42.054;24.546;2023-02-28T08:37:19;98955.72;;;11.15;100.00
20023;BME280;10172;42.054;24.546;2023-02-28T08:39:46;98947.72;;;10.86;100.00
20023;BME280;10172;42.054;24.546;2023-02-28T08:42:12;98949.66;;;10.98;100.00
20023;BME280;10172;42.054;24.546;2023-02-28T08:44:37;98956.31;;;11.78;100.00
20023;BME280;10172;42.054;24.546;2023-02-28T08:47:03;98949.31;;;10.58;100.00
20023;BME280;10172;42.054;24.546;2023-02-28T08:49:28;98947.44;;;10.29;100.00
20023;BME280;10172;42.054;24.546;2023-02-28T08:51:54;98951.81;;;9.82;100.00
20023;BME280;10172;42.054;24.546;2023-02-28T08:54:22;98954.88;;;10.38;100.00
20023;BME280;10172;42.054;24.546;2023-02-28T08:56:48;98953.97;;;11.14;100.00
20023;BME280;10172;42.054;24.546;2023-02-28T08:59:13;98944.84;;;11.04;100.00
20023;BME280;10172;42.054;24.546;2023-02-28T09:01:39;98938.97;;;10.84;100.00
20023;BME280;10172;42.054;24.546;2023-02-28T09:04:06;98935.38;;;10.69;100.00
20023;BME280;10172;42.054;24.546;2023-02-28T09:06:34;98937.53;;;11.08;100.00
20023;BME280;10172;42.054;24.546;2023-02-28T09:09:00;98937.47;;;10.64;100.00
20023;BME280;10172;42.054;24.546;2023-02-28T09:11:27;98940.53;;;10.72;100.00
20023;BME280;10172;42.054;24.546;2023-02-28T09:13:52;98941.31;;;11.04;100.00
20023;BME280;10172;42.054;24.546;2023-02-28T09:16:18;98932.97;;;10.80;100.00
20023;BME280;10172;42.054;24.546;2023-02-28T09:18:44;98941.53;;;11.15;100.00
20023;BME280;10172;42.054;24.546;2023-02-28T09:21:12;98938.00;;;11.14;100.00
20023;BME280;10172;42.054;24.546;2023-02-28T09:23:40;98927.94;;;10.90;100.00
20023;BME280;10172;42.054;24.546;2023-02-28T09:26:07;98936.13;;;10.87;100.00
20023;BME280;10172;42.054;24.546;2023-02-28T09:28:33;98929.09;;;12.28;100.00
20023;BME280;10172;42.054;24.546;2023-02-28T09:30:58;98938.31;;;12.90;100.00
20023;BME280;10172;42.054;24.546;2023-02-28T09:33:25;98937.41;;;13.04;100.00
20023;BME280;10172;42.054;24.546;2023-02-28T09:35:58;98941.03;;;13.42;100.00
20023;BME280;10172;42.054;24.546;2023-02-28T09:38:23;98943.22;;;13.10;100.00
20023;BME280;10172;42.054;24.546;2023-02-28T09:40:58;98942.91;;;13.28;100.00
20023;BME280;10172;42.054;24.546;2023-02-28T09:43:28;98934.81;;;13.42;99.90
20023;BME280;10172;42.054;24.546;2023-02-28T09:45:58;98933.66;;;13.58;96.88
20023;BME280;10172;42.054;24.546;2023-02-28T09:48:35;98930.63;;;13.25;100.00
20023;BME280;10172;42.054;24.546;2023-02-28T09:51:04;98942.06;;;12.88;100.00
20023;BME280;10172;42.054;24.546;2023-02-28T09:53:36;98936.69;;;13.14;100.00
20023;BME280;10172;42.054;24.546;2023-02-28T09:56:08;98929.13;;;13.21;100.00
20023;BME280;10172;42.054;24.546;2023-02-28T09:58:47;98926.34;;;13.23;100.00
20023;BME280;10172;42.054;24.546;2023-02-28T10:04:03;98917.91;;;13.79;96.96
20023;BME280;10172;42.054;24.546;2023-02-28T10:06:46;98914.00;;;13.59;98.05
20023;BME280;10172;42.054;24.546;2023-02-28T10:09:21;98910.84;;;13.28;98.25
20023;BME280;10172;42.054;24.546;2023-02-28T10:11:53;98907.75;;;12.55;100.00
20023;BME280;10172;42.054;24.546;2023-02-28T10:14:22;98905.72;;;12.46;100.00
20023;BME280;10172;42.054;24.546;2023-02-28T10:17:11;98904.50;;;12.64;100.00
20023;BME280;10172;42.054;24.546;2023-02-28T10:22:21;98911.06;;;13.12;100.00
20023;BME280;10172;42.054;24.546;2023-02-28T10:24:50;98914.16;;;12.79;100.00
20023;BME280;10172;42.054;24.546;2023-02-28T10:27:25;98915.13;;;13.17;100.00
20023;BME280;10172;42.054;24.546;2023-02-28T10:30:01;98913.22;;;13.32;100.00
20023;BME280;10172;42.054;24.546;2023-02-28T10:32:32;98911.25;;;13.09;100.00
20023;BME280;10172;42.054;24.546;2023-02-28T10:35:24;98908.06;;;13.16;100.00
20023;BME280;10172;42.054;24.546;2023-02-28T10:37:55;98899.22;;;12.50;100.00
20023;BME280;10172;42.054;24.546;2023-02-28T10:42:58;98899.66;;;12.83;100.00
20023;BME280;10172;42.054;24.546;2023-02-28T10:45:26;98893.66;;;12.92;100.00
20023;BME280;10172;42.054;24.546;2023-02-28T10:47:56;98885.66;;;13.32;100.00
20023;BME280;10172;42.054;24.546;2023-02-28T10:58:46;98877.53;;;12.54;100.00
20023;BME280;10172;42.054;24.546;2023-02-28T11:01:15;98878.56;;;12.66;100.00
20023;BME280;10172;42.054;24.546;2023-02-28T11:03:41;98870.72;;;12.24;100.00
20023;BME280;10172;42.054;24.546;2023-02-28T11:06:13;98877.06;;;12.62;100.00
20023;BME280;10172;42.054;24.546;2023-02-28T11:08:48;98874.16;;;12.92;100.00
20023;BME280;10172;42.054;24.546;2023-02-28T11:11:15;98872.81;;;12.85;100.00
20023;BME280;10172;42.054;24.546;2023-02-28T11:13:43;98880.41;;;12.78;100.00
20023;BME280;10172;42.054;24.546;2023-02-28T11:16:11;98873.38;;;12.24;100.00
20023;BME280;10172;42.054;24.546;2023-02-28T11:21:06;98870.28;;;12.83;100.00
20023;BME280;10172;42.054;24.546;2023-02-28T11:23:35;98871.47;;;13.04;100.00
20023;BME280;10172;42.054;24.546;2023-02-28T11:26:03;98871.31;;;13.20;100.00
20023;BME280;10172;42.054;24.546;2023-02-28T11:28:39;98885.41;;;13.09;100.00
20023;BME280;10172;42.054;24.546;2023-02-28T11:33:50;98876.69;;;12.93;100.00
20023;BME280;10172;42.054;24.546;2023-02-28T11:36:24;98870.47;;;12.80;100.00
20023;BME280;10172;42.054;24.546;2023-02-28T11:38:50;98865.75;;;13.10;100.00
20023;BME280;10172;42.054;24.546;2023-02-28T11:41:25;98855.28;;;13.45;97.80
20023;BME280;10172;42.054;24.546;2023-02-28T11:44:18;98864.69;;;13.51;97.13
20023;BME280;10172;42.054;24.546;2023-02-28T11:46:56;98856.31;;;13.68;95.21
20023;BME280;10172;42.054;24.546;2023-02-28T11:49:58;98865.66;;;13.37;95.31
20023;BME280;10172;42.054;24.546;2023-02-28T11:57:57;98851.97;;;10.70;100.00
20023;BME280;10172;42.054;24.546;2023-02-28T12:03:42;98847.44;;;10.86;100.00
20023;BME280;10172;42.054;24.546;2023-02-28T12:11:44;98828.66;;;10.73;100.00
20023;BME280;10172;42.054;24.546;2023-02-28T12:28:47;98820.78;;;11.30;100.00
20023;BME280;10172;42.054;24.546;2023-02-28T12:31:24;98823.50;;;11.14;100.00
20023;BME280;10172;42.054;24.546;2023-02-28T12:34:12;98828.72;;;10.58;100.00
20023;BME280;10172;42.054;24.546;2023-02-28T12:36:41;98829.00;;;10.53;100.00
20023;BME280;10172;42.054;24.546;2023-02-28T12:39:18;98831.09;;;10.48;100.00
20023;BME280;10172;42.054;24.546;2023-02-28T12:41:51;98820.84;;;9.48;100.00
20023;BME280;10172;42.054;24.546;2023-02-28T12:44:28;98825.41;;;9.62;100.00
20023;BME280;10172;42.054;24.546;2023-02-28T12:47:00;98829.09;;;9.59;100.00
20023;BME280;10172;42.054;24.546;2023-02-28T12:51:57;98820.34;;;9.89;100.00
20023;BME280;10172;42.054;24.546;2023-02-28T12:54:51;98814.16;;;9.88;100.00
20023;BME280;10172;42.054;24.546;2023-02-28T12:57:36;98811.66;;;10.01;100.00
20023;BME280;10172;42.054;24.546;2023-02-28T13:00:12;98822.44;;;9.35;100.00
20023;BME280;10172;42.054;24.546;2023-02-28T13:08:24;98818.28;;;9.62;100.00
20023;BME280;10172;42.054;24.546;2023-02-28T13:10:56;98822.38;;;9.68;100.00
20023;BME280;10172;42.054;24.546;2023-02-28T13:13:27;98817.41;;;9.46;100.00
20023;BME280;10172;42.054;24.546;2023-02-28T13:16:08;98823.69;;;10.24;100.00
20023;BME280;10172;42.054;24.546;2023-02-28T13:18:37;98827.59;;;10.92;100.00
20023;BME280;10172;42.054;24.546;2023-02-28T13:21:08;98819.63;;;11.48;100.00
20023;BME280;10172;42.054;24.546;2023-02-28T13:35:14;98829.59;;;9.18;100.00
20023;BME280;10172;42.054;24.546;2023-02-28T13:39:57;98831.97;;;9.71;100.00
20023;BME280;10172;42.054;24.546;2023-02-28T14:06:50;98835.38;;;9.41;100.00
20023;BME280;10172;42.054;24.546;2023-02-28T14:09:23;98835.59;;;9.06;100.00
20023;BME280;10172;42.054;24.546;2023-02-28T14:11:50;98836.72;;;9.17;100.00
20023;BME280;10172;42.054;24.546;2023-02-28T14:17:02;98833.31;;;9.31;100.00
20023;BME280;10172;42.054;24.546;2023-02-28T14:19:30;98839.28;;;8.34;100.00
20023;BME280;10172;42.054;24.546;2023-02-28T14:25:04;98838.88;;;9.26;100.00
20023;BME280;10172;42.054;24.546;2023-02-28T14:27:50;98842.09;;;9.48;100.00
20023;BME280;10172;42.054;24.546;2023-02-28T14:31:00;98843.63;;;9.68;100.00
20023;BME280;10172;42.054;24.546;2023-02-28T14:36:12;98824.94;;;10.01;100.00
20023;BME280;10172;42.054;24.546;2023-02-28T14:41:23;98827.91;;;9.81;100.00
20023;BME280;10172;42.054;24.546;2023-02-28T14:43:55;98839.19;;;9.69;100.00
20023;BME280;10172;42.054;24.546;2023-02-28T14:46:22;98836.19;;;9.90;100.00
20023;BME280;10172;42.054;24.546;2023-02-28T14:48:50;98844.09;;;9.28;100.00
20023;BME280;10172;42.054;24.546;2023-02-28T14:51:21;98842.59;;;9.39;100.00
20023;BME280;10172;42.054;24.546;2023-02-28T14:53:57;98839.72;;;9.91;100.00
20023;BME280;10172;42.054;24.546;2023-02-28T14:56:41;98836.44;;;9.54;100.00
20023;BME280;10172;42.054;24.546;2023-02-28T14:59:26;98847.72;;;9.42;100.00
20023;BME280;10172;42.054;24.546;2023-02-28T15:01:53;98839.88;;;10.03;100.00
20023;BME280;10172;42.054;24.546;2023-02-28T15:04:32;98856.41;;;8.96;100.00
20023;BME280;10172;42.054;24.546;2023-02-28T15:07:13;98847.88;;;8.57;100.00
20023;BME280;10172;42.054;24.546;2023-02-28T15:09:39;98856.88;;;9.04;100.00
20023;BME280;10172;42.054;24.546;2023-02-28T15:12:04;98855.91;;;8.72;100.00
20023;BME280;10172;42.054;24.546;2023-02-28T15:14:31;98869.28;;;9.36;100.00
20023;BME280;10172;42.054;24.546;2023-02-28T15:17:02;98864.72;;;9.23;100.00